15:15
Airports
History
Links
Donate
Help keep this website running!
PayPal
Bitcoin
This page is community maintained. The information is intended for PC simulator navigation or reference.
Always use approved charts for navigation.
SIFU
Fazenda Ribeirao
Fazenda Ribeirao (SIFU)
Barra do PiraĆ­, Rio de Janeiro, Brazil
4
Lat/Lng:22° 24' 56" S / 43° 46' 31" W
-22.415556 / -43.775278
Elevation:1319'ft / 402mMSL
ID / ICAO:SIFU
Runways:1
Longest:07-25
Grass 612m / 2,006ft
Nearby Weather14:00 GMT 2018-01-16
Nearby weather at SBSC, SANTA CRUZ located 35.9 nautical miles from SIFU
Altimeter: 29.97
Visibility: 6.2 statute miles
Wind: 11 knots (from 230°)
Temp: 32°c / 90°f
Humidity: 52.3%

METAR: SBSC 161400Z 23011KT CAVOK 32/21 Q1015

(Powered by phpweather)
Runway 07 / 25
Dimensions:611.5 x 18m 2006' x 59'ft
Surface:Grass
Runway 07 [A]Runway 25 [B]
Heading:045°TH 225°TH
Lat:
Lng:
22° 25' 2.89"S
43° 46' 38.67"W
22° 24' 49.11"S
43° 46' 23.33"W
User Notes and Comments
22° 24' 56" S / 43° 46' 31" W
Distance To
Airport ID:
Nearby Airports
4 Valenca 12.6 NM
SDVL NNE 18°
4 Fazenda Recanto Feliz 28.8 NM
SDRF SW 217°
(U) AEROCLUBE NOVA IGUACU 30.4 NM
SDNY SE 138°
4 Fazenda Santa Tereza 33.6 NM
SJTQ E 84°
(C) SANTA CRUZ 35.9 NM
SBSC ( WX ) S 174°
(C) Campo Delio Jardim de Mattos 40.4 NM
SBAF ( WX ) SE 141°
4 Fazenda Portobello 40.4 NM
SDPA SSW 208°
VFR Chart
Flight Planning at SkyVector.com